aviador You're here:

KJLN Decoded Metar

JOPLIN in MO, USA
Report Time2018-01-17 00:53:00
UTC Time2018-01-17 01:22:59
Flight Rules vfr VFR
WindCalm
Visibility9999 m
Phenomena:N/A
Clouds:N/A
Expected CloudBase > 800 ft AGL from Temp-Dew spread
CeilingNone
Temp-16°C (ISA -29)
Dew Point-18°C (85% RH)
AAT-19.5°C
QNH1041 hPa
Density Alt-3,629 ft
Elevation981 ft
Report Wrong Elevation
Raw Report
KJLN 170053Z 00000KT 10SM CLR M16/M18 A3074 RMK AO2 SLP433
T11611183=

Extra information for KJLN:More info

Metar Taf Metar & Taf Last 4 Metars F.Rules Stats Wind Profile Meteogram Temp Stats Airport Information Weather charts Add Link Nearby VenuesMetar ALERT Operation Metar Decoded Social comments

AIRNAV info for KJLN